Adamsville, Rhode Island
Current Conditions -  °F | °C
As of 9:53 AM on Thursday 23 Oct 2014 (Local Time) from KUUU Reporting Station
Overcast Overcast  
Wind Chill: 13°   Ceiling: 1300
Heat Index: 13°   Visibility: 10mi
Dew Point:   Wind: 18mph
Humidity: 77%   Direction: 360°N
Pressure: 29.59"   Gusts: 30mph
Location:  41.55°N, 71.13°W
Report Text: KUUU 231353Z AUTO 36016G26KT 10SM OVC013 13/09 A2959 RMK AO2 PK WND 36027/1321 SLP018 T01330094
Loading
Personal Weather Stations






























Interactive Weather Map
Tropical Storm Tracking
New forecast layout! Learn more

10-Day Weather Forecast

Advertisements
Track Severe Weather on mobile